createdAt,value
2022-11-15T00:01:44.569Z,11.40
2022-11-15T00:04:30.133Z,11.30
2022-11-15T00:07:40.304Z,11.30
2022-11-15T00:10:21.016Z,11.30
2022-11-15T00:13:15.287Z,11.30
2022-11-15T00:16:02.656Z,11.20
2022-11-15T00:18:50.874Z,11.20
2022-11-15T00:21:36.786Z,11.20
2022-11-15T00:24:22.373Z,11.20
2022-11-15T00:27:08.406Z,11.10
2022-11-15T00:29:54.318Z,11.10
2022-11-15T00:32:39.952Z,11.10
2022-11-15T00:35:25.743Z,11.10
2022-11-15T00:38:11.145Z,11.10
2022-11-15T00:40:56.404Z,11.10
2022-11-15T00:43:44.455Z,11.10
2022-11-15T00:46:30.249Z,11.00
2022-11-15T00:49:15.980Z,11.00
2022-11-15T00:52:01.445Z,11.00
2022-11-15T00:54:46.758Z,11.00
2022-11-15T00:57:32.105Z,11.00
2022-11-15T01:00:18.036Z,11.00
2022-11-15T01:03:03.387Z,10.90
2022-11-15T01:05:48.846Z,10.90
2022-11-15T01:08:34.465Z,10.80
2022-11-15T01:11:19.791Z,10.80
2022-11-15T01:14:05.016Z,10.90
2022-11-15T01:16:50.447Z,10.90
2022-11-15T01:19:35.831Z,10.90
2022-11-15T01:22:21.711Z,10.90
2022-11-15T01:25:07.443Z,10.90
2022-11-15T01:27:52.999Z,10.90
2022-11-15T01:30:38.626Z,10.90
2022-11-15T01:33:24.106Z,10.90
2022-11-15T01:36:22.778Z,10.90
2022-11-15T01:39:09.296Z,10.90
2022-11-15T01:41:55.319Z,10.90
2022-11-15T01:44:50.837Z,10.90
2022-11-15T01:47:43.449Z,10.90
2022-11-15T01:50:33.512Z,10.90
2022-11-15T01:53:23.475Z,10.90
2022-11-15T01:56:12.714Z,10.90
2022-11-15T01:59:01.964Z,10.90
2022-11-15T02:01:48.419Z,10.90
2022-11-15T02:04:46.675Z,10.80
2022-11-15T02:07:33.027Z,10.80
2022-11-15T02:10:21.771Z,10.80
2022-11-15T02:13:07.429Z,10.70
2022-11-15T02:16:03.161Z,10.80
2022-11-15T02:18:58.072Z,10.70
2022-11-15T02:22:07.593Z,10.70
2022-11-15T02:25:18.513Z,10.70
2022-11-15T02:28:15.258Z,10.70
2022-11-15T02:31:04.112Z,10.70
2022-11-15T02:34:13.056Z,10.70
2022-11-15T02:37:33.233Z,10.70
2022-11-15T02:40:24.692Z,10.70
2022-11-15T02:43:38.015Z,10.70
2022-11-15T02:47:14.485Z,10.70
2022-11-15T02:50:08.224Z,10.70
2022-11-15T02:52:53.792Z,10.70
2022-11-15T02:55:45.818Z,10.70
2022-11-15T02:58:40.308Z,10.70
2022-11-15T03:01:44.137Z,10.70
2022-11-15T03:05:05.405Z,10.70
2022-11-15T03:08:18.532Z,10.70
2022-11-15T03:11:13.824Z,10.70
2022-11-15T03:14:09.211Z,10.70
2022-11-15T03:17:09.466Z,10.70
2022-11-15T03:19:59.735Z,10.70
2022-11-15T03:22:48.404Z,10.70
2022-11-15T03:25:37.371Z,10.70
2022-11-15T03:28:33.550Z,10.70
2022-11-15T03:31:45.667Z,10.80
2022-11-15T03:34:46.725Z,10.80
2022-11-15T03:37:41.490Z,10.80
2022-11-15T03:40:43.042Z,10.80
2022-11-15T03:43:49.442Z,10.70
2022-11-15T03:46:48.687Z,10.80
2022-11-15T03:49:36.475Z,10.80
2022-11-15T03:52:23.042Z,10.80
2022-11-15T03:55:12.254Z,10.80
2022-11-15T03:57:59.856Z,10.80
2022-11-15T04:00:45.161Z,10.80
2022-11-15T04:03:31.517Z,10.80
2022-11-15T04:06:16.939Z,10.90
2022-11-15T04:09:02.681Z,10.80
2022-11-15T04:11:47.949Z,10.90
2022-11-15T04:14:33.292Z,10.80
2022-11-15T04:17:18.674Z,10.90
2022-11-15T04:20:24.343Z,10.90
2022-11-15T04:23:46.438Z,10.90
2022-11-15T04:26:31.805Z,10.90
2022-11-15T04:29:35.456Z,11.00
2022-11-15T04:32:20.955Z,11.00
2022-11-15T04:35:06.568Z,11.00
2022-11-15T04:37:51.970Z,10.90
2022-11-15T04:40:38.555Z,10.90
2022-11-15T04:43:24.147Z,11.00
2022-11-15T04:46:09.461Z,10.90
2022-11-15T04:48:58.820Z,10.90
2022-11-15T04:51:45.374Z,11.00
2022-11-15T04:54:30.976Z,10.90
2022-11-15T04:57:16.699Z,11.00
2022-11-15T05:00:04.753Z,11.00
2022-11-15T05:03:08.927Z,11.00
2022-11-15T05:05:54.456Z,11.00
2022-11-15T05:08:39.761Z,11.00
2022-11-15T05:11:25.490Z,11.00
2022-11-15T05:14:10.915Z,11.00
2022-11-15T05:16:56.384Z,11.10
2022-11-15T05:19:41.659Z,11.10
2022-11-15T05:22:27.733Z,11.10
2022-11-15T05:25:13.048Z,11.20
2022-11-15T05:27:58.455Z,11.10
2022-11-15T05:30:43.866Z,11.20
2022-11-15T05:33:29.791Z,11.20
2022-11-15T05:36:21.773Z,11.20
2022-11-15T05:39:09.293Z,11.20
2022-11-15T05:42:02.909Z,11.20
2022-11-15T05:44:50.453Z,11.20
2022-11-15T05:47:38.928Z,11.20
2022-11-15T05:50:24.546Z,11.30
2022-11-15T05:53:11.972Z,11.30
2022-11-15T05:55:57.338Z,11.30
2022-11-15T05:58:43.565Z,11.30
2022-11-15T06:01:29.539Z,11.30
2022-11-15T06:04:15.259Z,11.30
2022-11-15T06:07:00.856Z,11.30
2022-11-15T06:09:46.858Z,11.30
2022-11-15T06:12:32.391Z,11.30
2022-11-15T06:15:17.999Z,11.30
2022-11-15T06:18:03.857Z,11.30
2022-11-15T06:20:49.214Z,11.30
2022-11-15T06:23:36.095Z,11.30
2022-11-15T06:26:21.785Z,11.30
2022-11-15T06:29:07.503Z,11.30
2022-11-15T06:31:53.965Z,11.30
2022-11-15T06:34:39.269Z,11.30
2022-11-15T06:37:24.801Z,11.30
2022-11-15T06:40:11.519Z,11.40
2022-11-15T06:43:00.619Z,11.40
2022-11-15T06:45:46.264Z,11.40
2022-11-15T06:48:32.924Z,11.40
2022-11-15T06:51:18.448Z,11.40
2022-11-15T06:54:04.090Z,11.40
2022-11-15T06:56:49.317Z,11.40
2022-11-15T06:59:39.303Z,11.40
2022-11-15T07:02:26.748Z,11.40
2022-11-15T07:05:12.831Z,11.40
2022-11-15T07:07:59.414Z,11.50
2022-11-15T07:10:45.048Z,11.50
2022-11-15T07:13:35.757Z,11.50
2022-11-15T07:16:21.467Z,11.50
2022-11-15T07:19:07.012Z,11.60
2022-11-15T07:21:52.372Z,11.60
2022-11-15T07:24:37.810Z,11.60
2022-11-15T07:27:23.488Z,11.60
2022-11-15T07:30:09.854Z,11.60
2022-11-15T07:33:04.292Z,11.60
2022-11-15T07:35:50.357Z,11.60
2022-11-15T07:38:42.592Z,11.70
2022-11-15T07:41:28.749Z,11.70
2022-11-15T07:44:14.324Z,11.70
2022-11-15T07:46:59.861Z,11.70
2022-11-15T07:49:46.959Z,11.70
2022-11-15T07:52:32.365Z,11.70
2022-11-15T07:55:18.152Z,11.70
2022-11-15T07:58:05.373Z,11.80
2022-11-15T08:00:50.948Z,11.80
2022-11-15T08:03:36.982Z,11.80
2022-11-15T08:06:22.541Z,11.80
2022-11-15T08:09:08.188Z,11.80
2022-11-15T08:11:53.897Z,11.80
2022-11-15T08:14:39.566Z,11.90
2022-11-15T08:17:26.104Z,11.80
2022-11-15T08:20:11.745Z,11.90
2022-11-15T08:22:58.254Z,11.80
2022-11-15T08:25:43.813Z,11.90
2022-11-15T08:28:29.364Z,11.90
2022-11-15T08:31:19.572Z,11.90
2022-11-15T08:34:06.060Z,11.90
2022-11-15T08:36:51.613Z,11.90
2022-11-15T08:39:36.992Z,11.90
2022-11-15T08:42:22.744Z,12.00
2022-11-15T08:45:09.345Z,12.00
2022-11-15T08:47:54.945Z,12.00
2022-11-15T08:50:40.736Z,12.00
2022-11-15T08:53:26.327Z,12.00
2022-11-15T08:56:14.251Z,12.00
2022-11-15T08:58:59.797Z,12.10
2022-11-15T09:01:45.225Z,12.10
2022-11-15T09:04:31.821Z,12.10
2022-11-15T09:07:17.338Z,12.20
2022-11-15T09:10:03.563Z,12.20
2022-11-15T09:12:49.564Z,12.20
2022-11-15T09:15:35.136Z,12.20
2022-11-15T09:18:23.339Z,12.30
2022-11-15T09:21:10.042Z,12.20
2022-11-15T09:23:55.369Z,12.30
2022-11-15T09:26:41.825Z,12.30
2022-11-15T09:29:27.677Z,12.30
2022-11-15T09:32:13.233Z,12.20
2022-11-15T09:34:58.918Z,12.20
2022-11-15T09:37:44.761Z,12.20
2022-11-15T09:40:37.479Z,12.20
2022-11-15T09:43:39.592Z,12.20
2022-11-15T09:46:43.790Z,12.30
2022-11-15T09:49:18.149Z,12.30
2022-11-15T09:52:03.874Z,12.30
2022-11-15T09:57:35.857Z,12.40
2022-11-15T10:03:15.256Z,12.40
2022-11-15T10:05:47.882Z,12.40
2022-11-15T10:08:53.656Z,12.50
2022-11-15T10:11:41.990Z,12.50
2022-11-15T10:14:21.107Z,12.50
2022-11-15T10:17:16.331Z,12.50
2022-11-15T10:20:03.932Z,12.40
2022-11-15T10:22:47.952Z,12.40
2022-11-15T10:25:25.741Z,12.40
2022-11-15T10:28:17.515Z,12.40
2022-11-15T10:30:47.412Z,12.40
2022-11-15T10:33:25.953Z,12.40
2022-11-15T10:36:12.969Z,12.40
2022-11-15T10:38:49.327Z,12.40
2022-11-15T10:41:38.125Z,12.40
2022-11-15T10:44:07.742Z,12.40
2022-11-15T10:46:46.538Z,12.40
2022-11-15T10:49:17.001Z,12.40
2022-11-15T10:52:01.621Z,12.40
2022-11-15T10:54:44.845Z,12.40
2022-11-15T10:57:16.884Z,12.40
2022-11-15T10:59:49.179Z,12.40
2022-11-15T11:02:36.458Z,12.40
2022-11-15T11:05:06.846Z,12.30
2022-11-15T11:07:36.132Z,12.30
2022-11-15T11:10:22.847Z,12.30
2022-11-15T11:12:52.455Z,12.30
2022-11-15T11:15:19.673Z,12.40
2022-11-15T11:17:58.768Z,12.40
2022-11-15T11:20:51.946Z,12.40
2022-11-15T11:23:47.694Z,12.40
2022-11-15T11:26:56.687Z,12.40
2022-11-15T11:29:33.274Z,12.40
2022-11-15T11:32:21.321Z,12.40
2022-11-15T11:35:41.493Z,12.50
2022-11-15T11:38:31.707Z,12.50
2022-11-15T11:41:27.802Z,12.50
2022-11-15T11:44:03.889Z,12.50
2022-11-15T11:46:55.258Z,12.50
2022-11-15T11:49:35.774Z,12.50
2022-11-15T11:52:14.670Z,12.50
2022-11-15T11:54:49.994Z,12.50
2022-11-15T11:57:31.776Z,12.60
2022-11-15T12:00:18.526Z,12.60
2022-11-15T12:03:01.426Z,12.60
2022-11-15T12:05:40.985Z,12.60
2022-11-15T12:08:31.457Z,12.60
2022-11-15T12:11:11.301Z,12.70
2022-11-15T12:13:39.962Z,12.60
2022-11-15T12:16:21.139Z,12.70
2022-11-15T12:18:54.069Z,12.70
2022-11-15T12:21:48.965Z,12.70
2022-11-15T12:24:42.481Z,12.70
2022-11-15T12:27:28.299Z,12.70
2022-11-15T12:30:03.700Z,12.70
2022-11-15T12:32:39.355Z,12.70
2022-11-15T12:35:39.919Z,12.70
2022-11-15T12:38:11.317Z,12.80
2022-11-15T12:40:59.320Z,12.80
2022-11-15T12:43:43.840Z,12.80
2022-11-15T12:46:30.430Z,12.80
2022-11-15T12:49:01.928Z,12.70
2022-11-15T12:51:44.148Z,12.70
2022-11-15T12:54:23.366Z,12.70
2022-11-15T12:57:07.369Z,12.70
2022-11-15T12:59:56.346Z,12.70
2022-11-15T13:02:30.229Z,12.70
2022-11-15T13:05:19.139Z,12.80
2022-11-15T13:07:46.074Z,12.80
2022-11-15T13:10:13.083Z,12.80
2022-11-15T13:12:46.433Z,12.80
2022-11-15T13:15:13.354Z,12.80
2022-11-15T13:17:41.451Z,12.80
2022-11-15T13:20:08.479Z,12.80
2022-11-15T13:22:51.621Z,12.80
2022-11-15T13:25:33.389Z,12.80
2022-11-15T13:28:07.656Z,12.80
2022-11-15T13:30:35.078Z,12.80
2022-11-15T13:33:10.255Z,12.80
2022-11-15T13:35:41.237Z,12.80
2022-11-15T13:38:21.077Z,12.80
2022-11-15T13:40:47.983Z,12.80
2022-11-15T13:43:24.029Z,12.90
2022-11-15T13:46:09.026Z,12.80
2022-11-15T13:48:36.399Z,12.80
2022-11-15T13:51:08.137Z,12.90
2022-11-15T13:53:37.847Z,12.80
2022-11-15T13:56:05.233Z,12.90
2022-11-15T13:58:34.106Z,12.80
2022-11-15T14:01:03.952Z,12.80
2022-11-15T14:03:33.799Z,12.80
2022-11-15T14:06:03.878Z,12.80
2022-11-15T14:08:31.403Z,12.80
2022-11-15T14:11:19.925Z,12.80
2022-11-15T14:14:06.571Z,12.80
2022-11-15T14:16:36.989Z,12.80
2022-11-15T14:19:06.006Z,12.80
2022-11-15T14:21:33.430Z,12.80
2022-11-15T14:24:20.735Z,12.80
2022-11-15T14:26:48.318Z,12.80
2022-11-15T14:29:29.141Z,12.80
2022-11-15T14:32:17.287Z,12.80
2022-11-15T14:34:44.841Z,12.80
2022-11-15T14:37:20.956Z,12.80
2022-11-15T14:39:48.360Z,12.80
2022-11-15T14:42:15.456Z,12.80
2022-11-15T14:44:45.959Z,12.80
2022-11-15T14:47:13.653Z,12.80
2022-11-15T14:49:40.873Z,12.80
2022-11-15T14:52:32.310Z,12.80
2022-11-15T14:55:03.163Z,12.70
2022-11-15T14:57:30.883Z,12.70
2022-11-15T14:59:57.949Z,12.70
2022-11-15T15:02:39.644Z,12.70
2022-11-15T15:05:17.621Z,12.70
2022-11-15T15:07:45.274Z,12.70
2022-11-15T15:10:42.333Z,12.70
2022-11-15T15:13:00.809Z,12.70
2022-11-15T15:15:38.688Z,12.70
2022-11-15T15:18:07.219Z,12.60
2022-11-15T15:20:34.313Z,12.70
2022-11-15T15:23:01.330Z,12.70
2022-11-15T15:25:35.866Z,12.70
2022-11-15T15:28:03.581Z,12.60
2022-11-15T15:30:31.753Z,12.70
2022-11-15T15:32:58.804Z,12.60
2022-11-15T15:35:30.327Z,12.70
2022-11-15T15:37:57.487Z,12.70
2022-11-15T15:40:26.398Z,12.70
2022-11-15T15:42:53.572Z,12.70
2022-11-15T15:45:20.690Z,12.70
2022-11-15T15:47:50.278Z,12.70
2022-11-15T15:50:23.209Z,12.70
2022-11-15T15:52:51.620Z,12.70
2022-11-15T15:55:18.905Z,12.70
2022-11-15T15:57:46.026Z,12.60
2022-11-15T16:00:13.741Z,12.60
2022-11-15T16:02:41.577Z,12.60
2022-11-15T16:05:09.826Z,12.60
2022-11-15T16:07:37.221Z,12.60
2022-11-15T16:10:23.604Z,12.60
2022-11-15T16:12:50.702Z,12.60
2022-11-15T16:15:18.490Z,12.60
2022-11-15T16:17:49.709Z,12.60
2022-11-15T16:20:33.565Z,12.60
2022-11-15T16:23:07.316Z,12.60
2022-11-15T16:25:56.768Z,12.60
2022-11-15T16:28:26.115Z,12.60
2022-11-15T16:31:09.924Z,12.60
2022-11-15T16:33:37.565Z,12.50
2022-11-15T16:36:29.559Z,12.50
2022-11-15T16:38:58.354Z,12.50
2022-11-15T16:41:25.436Z,12.50
2022-11-15T16:43:52.579Z,12.50
2022-11-15T16:46:22.368Z,12.50
2022-11-15T16:48:49.803Z,12.40
2022-11-15T16:51:17.445Z,12.40
2022-11-15T16:53:44.910Z,12.40
2022-11-15T16:56:20.862Z,12.40
2022-11-15T16:58:47.755Z,12.40
2022-11-15T17:01:24.386Z,12.50
2022-11-15T17:03:51.628Z,12.40
2022-11-15T17:06:19.100Z,12.50
2022-11-15T17:08:46.417Z,12.50
2022-11-15T17:11:20.127Z,12.50
2022-11-15T17:13:48.746Z,12.50
2022-11-15T17:16:17.576Z,12.40
2022-11-15T17:18:47.600Z,12.40
2022-11-15T17:21:17.106Z,12.40
2022-11-15T17:23:44.626Z,12.40
2022-11-15T17:26:31.217Z,12.40
2022-11-15T17:29:00.960Z,12.40
2022-11-15T17:31:30.188Z,12.40
2022-11-15T17:33:57.263Z,12.40
2022-11-15T17:36:24.225Z,12.40
2022-11-15T17:38:57.980Z,12.40
2022-11-15T17:41:27.208Z,12.40
2022-11-15T17:43:57.918Z,12.40
2022-11-15T17:46:25.556Z,12.40
2022-11-15T17:48:52.750Z,12.40
2022-11-15T17:51:19.803Z,12.40
2022-11-15T17:53:49.191Z,12.40
2022-11-15T17:56:21.442Z,12.40
2022-11-15T17:58:53.069Z,12.50
2022-11-15T18:01:24.412Z,12.40
2022-11-15T18:03:52.200Z,12.40
2022-11-15T18:06:20.318Z,12.40
2022-11-15T18:08:48.807Z,12.40
2022-11-15T18:11:27.777Z,12.50
2022-11-15T18:14:00.696Z,12.50
2022-11-15T18:16:30.931Z,12.50
2022-11-15T18:18:58.857Z,12.50
2022-11-15T18:21:29.239Z,12.50
2022-11-15T18:23:58.678Z,12.50
2022-11-15T18:26:27.907Z,12.50
2022-11-15T18:28:56.691Z,12.50
2022-11-15T18:31:27.066Z,12.50
2022-11-15T18:33:54.711Z,12.50
2022-11-15T18:36:27.060Z,12.50
2022-11-15T18:38:55.826Z,12.50
2022-11-15T18:41:28.874Z,12.50
2022-11-15T18:43:57.051Z,12.50
2022-11-15T18:46:26.539Z,12.50
2022-11-15T18:48:54.736Z,12.50
2022-11-15T18:51:25.125Z,12.50
2022-11-15T18:53:57.334Z,12.50
2022-11-15T18:56:25.856Z,12.50
2022-11-15T18:58:55.904Z,12.50
2022-11-15T19:01:26.341Z,12.50
2022-11-15T19:03:55.840Z,12.50
2022-11-15T19:06:25.522Z,12.50
2022-11-15T19:08:56.268Z,12.50
2022-11-15T19:11:25.558Z,12.50
2022-11-15T19:13:56.809Z,12.50
2022-11-15T19:16:24.510Z,12.50
2022-11-15T19:18:59.929Z,12.50
2022-11-15T19:21:28.100Z,12.40
2022-11-15T19:23:55.214Z,12.50
2022-11-15T19:26:23.649Z,12.40
2022-11-15T19:28:52.698Z,12.50
2022-11-15T19:31:20.825Z,12.50
2022-11-15T19:33:48.019Z,12.50
2022-11-15T19:36:14.882Z,12.50
2022-11-15T19:38:42.789Z,12.50
2022-11-15T19:41:18.302Z,12.50
2022-11-15T19:43:47.965Z,12.50
2022-11-15T19:46:15.842Z,12.50
2022-11-15T19:48:43.689Z,12.50
2022-11-15T19:51:25.433Z,12.50
2022-11-15T19:53:54.179Z,12.50
2022-11-15T19:56:22.342Z,12.50
2022-11-15T19:58:53.847Z,12.50
2022-11-15T20:01:22.295Z,12.50
2022-11-15T20:03:50.912Z,12.50
2022-11-15T20:06:19.966Z,12.50
2022-11-15T20:08:48.024Z,12.50
2022-11-15T20:11:16.428Z,12.50
2022-11-15T20:13:43.955Z,12.50
2022-11-15T20:16:17.956Z,12.50
2022-11-15T20:18:45.481Z,12.50
2022-11-15T20:21:12.898Z,12.50
2022-11-15T20:23:41.119Z,12.50
2022-11-15T20:26:10.384Z,12.50
2022-11-15T20:28:40.743Z,12.50
2022-11-15T20:31:10.503Z,12.50
2022-11-15T20:33:38.756Z,12.50
2022-11-15T20:36:08.871Z,12.50
2022-11-15T20:38:36.979Z,12.50
2022-11-15T20:41:04.205Z,12.50
2022-11-15T20:43:31.232Z,12.50
2022-11-15T20:45:59.205Z,12.50
2022-11-15T20:48:28.350Z,12.50
2022-11-15T20:51:16.891Z,12.50
2022-11-15T20:53:46.263Z,12.50
2022-11-15T20:56:19.914Z,12.50
2022-11-15T20:58:51.200Z,12.50
2022-11-15T21:01:25.596Z,12.50
2022-11-15T21:03:55.647Z,12.50
2022-11-15T21:06:25.218Z,12.50
2022-11-15T21:09:12.565Z,12.50
2022-11-15T21:11:59.656Z,12.50
2022-11-15T21:14:27.473Z,12.60
2022-11-15T21:16:55.340Z,12.50
2022-11-15T21:19:28.065Z,12.60
2022-11-15T21:22:00.165Z,12.60
2022-11-15T21:24:27.631Z,12.50
2022-11-15T21:26:55.744Z,12.50
2022-11-15T21:29:23.613Z,12.50
2022-11-15T21:31:52.945Z,12.50
2022-11-15T21:34:20.212Z,12.50
2022-11-15T21:36:47.212Z,12.50
2022-11-15T21:39:14.122Z,12.50
2022-11-15T21:41:41.188Z,12.50
2022-11-15T21:44:08.167Z,12.50
2022-11-15T21:46:37.105Z,12.50
2022-11-15T21:49:05.482Z,12.50
2022-11-15T21:51:32.770Z,12.50
2022-11-15T21:54:00.517Z,12.50
2022-11-15T21:56:29.961Z,12.50
2022-11-15T21:58:57.153Z,12.50
2022-11-15T22:01:43.900Z,12.50
2022-11-15T22:04:11.273Z,12.50
2022-11-15T22:06:38.651Z,12.60
2022-11-15T22:09:06.484Z,12.60
2022-11-15T22:11:33.617Z,12.60
2022-11-15T22:14:00.713Z,12.50
2022-11-15T22:16:27.741Z,12.50
2022-11-15T22:18:54.997Z,12.50
2022-11-15T22:21:22.228Z,12.50
2022-11-15T22:23:49.314Z,12.60
2022-11-15T22:26:23.208Z,12.50
2022-11-15T22:28:51.397Z,12.60
2022-11-15T22:31:18.688Z,12.50
2022-11-15T22:33:45.915Z,12.60
2022-11-15T22:36:13.248Z,12.50
2022-11-15T22:38:40.471Z,12.50
2022-11-15T22:41:08.074Z,12.50
2022-11-15T22:43:35.408Z,12.50
2022-11-15T22:46:03.618Z,12.50
2022-11-15T22:48:35.905Z,12.50
2022-11-15T22:51:03.623Z,12.50
2022-11-15T22:53:30.983Z,12.50
2022-11-15T22:56:02.551Z,12.50
2022-11-15T22:58:31.743Z,12.50
2022-11-15T23:01:01.432Z,12.50
2022-11-15T23:03:29.960Z,12.40
2022-11-15T23:06:02.263Z,12.50
2022-11-15T23:08:29.348Z,12.50
2022-11-15T23:11:18.724Z,12.50
2022-11-15T23:13:45.849Z,12.50
2022-11-15T23:16:31.594Z,12.40
2022-11-15T23:19:01.628Z,12.50
2022-11-15T23:21:56.143Z,12.50
2022-11-15T23:24:24.003Z,12.50
2022-11-15T23:26:53.172Z,12.40
2022-11-15T23:29:21.554Z,12.50
2022-11-15T23:32:24.350Z,12.40
2022-11-15T23:34:51.455Z,12.40
2022-11-15T23:37:18.486Z,12.50
2022-11-15T23:39:45.523Z,12.50
2022-11-15T23:42:19.951Z,12.40
2022-11-15T23:44:50.067Z,12.50
2022-11-15T23:47:18.423Z,12.50
2022-11-15T23:49:45.545Z,12.50
2022-11-15T23:52:12.662Z,12.50
2022-11-15T23:54:39.674Z,12.40
2022-11-15T23:57:11.734Z,12.40
2022-11-15T23:59:40.136Z,12.50
